CheckWX is a tool to help pilots better visualize weather data.  It is not intended as a substitute for an official pre-flight weather briefing.

09:22:10 UTC

LIPZ METAR
Venice Marco Polo Airport
Venice, Italy
Current

32 mins ago

LIPZ 170850Z 16003KT 130V200 CAVOK 25/18 Q1013 NOSIG
Observed
Jul-17 @ 08:50 UTC
Wind
  • 160° at 3 KTS
Visibility
10,000+ meters
Flight Rules
VFR
Cloud Levels
  • Clear skies
Temperature
25°C / 77°F
Dewpoint
18°C / 64°F
Humidity
65%
Altimeter
29.91" Hg
Pressure
1012.92 hPa
Previous

1 hour ago

LIPZ 170820Z 25003KT 160V330 CAVOK 26/17 Q1013 NOSIG
Observed
Jul-17 @ 08:20 UTC
Wind
  • 250° at 3 KTS
Visibility
10,000+ meters
Flight Rules
VFR
Cloud Levels
  • Clear skies
Temperature
26°C / 79°F
Dewpoint
17°C / 63°F
Humidity
58%
Altimeter
29.91" Hg
Pressure
1012.92 hPa
Previous

2 hours ago

LIPZ 170750Z VRB02KT CAVOK 24/17 Q1013 NOSIG
Observed
Jul-17 @ 07:50 UTC
Wind
  • Variable at 2 KTS
Visibility
10,000+ meters
Flight Rules
VFR
Cloud Levels
  • Clear skies
Temperature
24°C / 75°F
Dewpoint
17°C / 63°F
Humidity
65%
Altimeter
29.91" Hg
Pressure
1012.92 hPa